createdAt,value
2022-11-04T00:02:37.899Z,8.66
2022-11-04T00:08:04.656Z,8.66
2022-11-04T00:13:08.430Z,8.80
2022-11-04T00:18:15.303Z,8.65
2022-11-04T00:23:34.231Z,8.65
2022-11-04T00:28:47.178Z,8.53
2022-11-04T00:33:49.172Z,8.50
2022-11-04T00:38:53.272Z,8.39
2022-11-04T00:43:55.676Z,8.36
2022-11-04T00:48:57.413Z,8.31
2022-11-04T00:53:58.538Z,8.25
2022-11-04T00:58:59.405Z,8.22
2022-11-04T01:04:00.121Z,8.22
2022-11-04T01:09:07.392Z,8.14
2022-11-04T01:14:08.728Z,8.01
2022-11-04T01:19:12.496Z,8.00
2022-11-04T01:24:16.032Z,7.93
2022-11-04T01:29:17.037Z,7.88
2022-11-04T01:34:17.915Z,7.91
2022-11-04T01:39:18.714Z,7.84
2022-11-04T01:44:49.554Z,7.74
2022-11-04T01:50:39.424Z,7.59
2022-11-04T01:55:44.065Z,7.49
2022-11-04T02:00:45.667Z,7.43
2022-11-04T02:05:47.563Z,7.41
2022-11-04T02:10:53.827Z,7.31
2022-11-04T02:16:44.446Z,7.24
2022-11-04T02:24:01.531Z,7.18
2022-11-04T02:29:39.365Z,7.09
2022-11-04T02:35:07.404Z,7.11
2022-11-04T02:40:40.990Z,7.02
2022-11-04T02:45:43.723Z,7.00
2022-11-04T02:50:51.854Z,7.01
2022-11-04T02:55:58.452Z,7.01
2022-11-04T03:01:03.393Z,6.92
2022-11-04T03:06:07.625Z,6.85
2022-11-04T03:11:15.264Z,6.92
2022-11-04T03:16:24.949Z,6.84
2022-11-04T03:21:27.972Z,6.81
2022-11-04T03:26:37.353Z,6.84
2022-11-04T03:32:02.119Z,6.85
2022-11-04T03:37:03.303Z,6.80
2022-11-04T03:42:19.270Z,6.84
2022-11-04T03:47:28.273Z,6.91
2022-11-04T03:52:29.106Z,6.84
2022-11-04T03:58:13.739Z,6.91
2022-11-04T04:03:24.361Z,6.93
2022-11-04T04:08:45.218Z,6.91
2022-11-04T04:14:52.034Z,6.96
2022-11-04T04:20:03.636Z,6.91
2022-11-04T04:25:28.804Z,6.94
2022-11-04T04:30:30.214Z,6.98
2022-11-04T04:35:42.330Z,7.00
2022-11-04T04:41:19.875Z,6.95
2022-11-04T04:46:20.981Z,6.89
2022-11-04T04:51:22.083Z,6.75
2022-11-04T04:56:22.781Z,6.88
2022-11-04T05:01:26.260Z,6.86
2022-11-04T05:06:27.108Z,6.84
2022-11-04T05:11:28.085Z,6.89
2022-11-04T05:16:28.947Z,6.86
2022-11-04T05:21:30.744Z,6.71
2022-11-04T05:26:31.575Z,6.74
2022-11-04T05:31:35.727Z,6.83
2022-11-04T05:36:36.876Z,6.78
2022-11-04T05:41:37.876Z,6.81
2022-11-04T05:46:38.635Z,6.84
2022-11-04T05:51:39.666Z,6.95
2022-11-04T05:56:40.355Z,6.79
2022-11-04T06:01:43.136Z,6.82
2022-11-04T06:06:44.662Z,6.65
2022-11-04T06:11:45.871Z,6.63
2022-11-04T06:16:48.388Z,6.64
2022-11-04T06:21:49.671Z,6.63
2022-11-04T06:26:50.370Z,6.57
2022-11-04T06:31:51.432Z,6.66
2022-11-04T06:36:52.146Z,6.68
2022-11-04T06:41:53.699Z,6.85
2022-11-04T06:47:01.616Z,6.86
2022-11-04T06:52:02.875Z,6.90
2022-11-04T06:57:07.702Z,6.96
2022-11-04T07:02:10.643Z,7.12
2022-11-04T07:07:11.969Z,7.12
2022-11-04T07:12:15.529Z,7.10
2022-11-04T07:17:17.581Z,7.13
2022-11-04T07:22:18.668Z,7.15
2022-11-04T07:27:19.510Z,7.16
2022-11-04T07:32:23.171Z,7.14
2022-11-04T07:37:23.967Z,7.12
2022-11-04T07:42:24.740Z,7.14
2022-11-04T07:47:30.895Z,7.21
2022-11-04T07:52:32.011Z,7.32
2022-11-04T07:57:32.742Z,7.17
2022-11-04T08:02:36.784Z,7.29
2022-11-04T08:07:37.774Z,7.23
2022-11-04T08:12:42.769Z,7.26
2022-11-04T08:17:43.741Z,7.22
2022-11-04T08:22:46.682Z,7.34
2022-11-04T08:27:47.948Z,7.47
2022-11-04T08:32:51.563Z,7.69
2022-11-04T08:37:52.340Z,7.86
2022-11-04T08:42:53.128Z,7.82
2022-11-04T08:47:54.577Z,7.91
2022-11-04T08:52:55.381Z,7.94
2022-11-04T08:57:56.468Z,8.17
2022-11-04T09:02:57.175Z,8.76
2022-11-04T09:07:58.049Z,9.19
2022-11-04T09:13:01.579Z,8.84
2022-11-04T09:18:02.742Z,8.58
2022-11-04T09:23:04.447Z,8.76
2022-11-04T09:28:05.809Z,9.10
2022-11-04T09:33:07.032Z,8.76
2022-11-04T09:38:08.081Z,8.94
2022-11-04T09:43:44.385Z,9.02
2022-11-04T09:48:49.952Z,8.78
2022-11-04T09:53:55.803Z,8.80
2022-11-04T09:58:56.851Z,8.66
2022-11-04T10:04:17.604Z,8.51
2022-11-04T10:10:06.817Z,8.74
2022-11-04T10:18:53.520Z,8.72
2022-11-04T10:24:06.410Z,8.54
2022-11-04T10:29:14.787Z,8.32
2022-11-04T10:34:45.923Z,8.15
2022-11-04T10:39:47.280Z,8.04
2022-11-04T10:44:50.533Z,8.22
2022-11-04T10:57:38.675Z,8.08
2022-11-04T11:02:46.133Z,7.98
2022-11-04T11:07:50.157Z,7.96
2022-11-04T11:13:25.553Z,8.01
2022-11-04T11:18:28.751Z,7.83
2022-11-04T11:23:46.443Z,7.91
2022-11-04T11:28:58.857Z,8.03
2022-11-04T11:34:04.446Z,8.03
2022-11-04T11:39:17.651Z,8.12
2022-11-04T11:44:33.492Z,8.40
2022-11-04T11:49:36.835Z,8.41
2022-11-04T11:54:42.399Z,8.54
2022-11-04T12:11:12.320Z,8.88
2022-11-04T12:18:10.222Z,9.60
2022-11-04T12:23:31.236Z,10.09
2022-11-04T12:28:53.682Z,10.24
2022-11-04T12:34:37.941Z,10.84
2022-11-04T12:43:18.516Z,10.97
2022-11-04T12:48:43.630Z,10.27
2022-11-04T12:53:57.618Z,9.56
2022-11-04T12:59:39.693Z,9.38
2022-11-04T13:04:58.268Z,9.21
2022-11-04T13:10:13.903Z,9.29
2022-11-04T13:15:19.537Z,9.30
2022-11-04T13:20:32.369Z,9.11
2022-11-04T13:25:46.906Z,9.15
2022-11-04T13:31:07.199Z,9.56
2022-11-04T13:36:39.591Z,11.14
2022-11-04T13:44:37.265Z,11.93
2022-11-04T13:49:41.194Z,11.98
2022-11-04T13:54:58.924Z,12.33
2022-11-04T14:03:23.146Z,11.56
2022-11-04T14:08:24.062Z,10.63
2022-11-04T14:14:16.513Z,10.53
2022-11-04T14:19:47.182Z,10.68
2022-11-04T14:24:59.202Z,11.99
2022-11-04T14:30:00.441Z,12.98
2022-11-04T14:35:05.188Z,12.99
2022-11-04T14:40:26.327Z,11.96
2022-11-04T14:45:38.707Z,10.89
2022-11-04T14:50:44.318Z,10.92
2022-11-04T14:55:45.072Z,10.46
2022-11-04T15:01:04.858Z,10.33
2022-11-04T15:06:07.492Z,10.11
2022-11-04T15:12:49.562Z,10.03
2022-11-04T15:17:50.694Z,9.76
2022-11-04T15:22:55.521Z,9.75
2022-11-04T15:27:56.836Z,9.75
2022-11-04T15:33:01.524Z,9.56
2022-11-04T15:38:03.154Z,9.60
2022-11-04T15:43:05.940Z,9.50
2022-11-04T15:48:39.607Z,9.32
2022-11-04T15:54:14.642Z,9.20
2022-11-04T15:59:20.501Z,9.33
2022-11-04T16:04:24.886Z,9.31
2022-11-04T16:09:27.662Z,9.19
2022-11-04T16:14:29.341Z,8.98
2022-11-04T16:19:31.592Z,8.90
2022-11-04T16:24:41.104Z,8.96
2022-11-04T16:29:47.632Z,8.80
2022-11-04T16:34:54.567Z,8.73
2022-11-04T16:39:55.375Z,8.65
2022-11-04T16:45:00.839Z,8.61
2022-11-04T16:50:01.843Z,8.69
2022-11-04T16:55:06.810Z,8.72
2022-11-04T17:00:12.551Z,8.67
2022-11-04T17:05:13.926Z,8.71
2022-11-04T17:10:21.506Z,8.67
2022-11-04T17:15:25.210Z,8.70
2022-11-04T17:20:33.361Z,8.67
2022-11-04T17:25:34.278Z,8.70
2022-11-04T17:30:35.585Z,8.71
2022-11-04T17:35:37.367Z,8.75
2022-11-04T17:40:57.598Z,8.75
2022-11-04T17:46:33.434Z,8.69
2022-11-04T17:51:35.686Z,8.66
2022-11-04T17:56:37.348Z,8.58
2022-11-04T18:01:39.653Z,8.61
2022-11-04T18:06:41.035Z,8.64
2022-11-04T18:12:01.426Z,8.58
2022-11-04T18:17:09.565Z,8.51
2022-11-04T18:22:10.453Z,8.43
2022-11-04T18:27:14.020Z,8.41
2022-11-04T18:32:15.025Z,8.50
2022-11-04T18:37:17.627Z,8.44
2022-11-04T18:42:21.370Z,8.19
2022-11-04T18:47:23.925Z,8.17
2022-11-04T18:52:25.072Z,8.02
2022-11-04T18:57:26.274Z,7.90
2022-11-04T19:02:27.341Z,7.91
2022-11-04T19:07:28.329Z,7.91
2022-11-04T19:12:47.931Z,7.90
2022-11-04T19:17:51.149Z,7.96
2022-11-04T19:22:52.176Z,7.97
2022-11-04T19:28:18.751Z,7.96
2022-11-04T19:33:35.567Z,7.98
2022-11-04T19:38:39.292Z,8.05
2022-11-04T19:43:40.063Z,8.07
2022-11-04T19:48:40.803Z,7.93
2022-11-04T19:53:42.093Z,7.89
2022-11-04T19:58:46.734Z,7.88
2022-11-04T20:03:47.769Z,7.92
2022-11-04T20:08:53.877Z,7.90
2022-11-04T20:13:54.764Z,7.93
2022-11-04T20:18:59.757Z,7.97
2022-11-04T20:24:08.027Z,7.95
2022-11-04T20:29:09.911Z,7.98
2022-11-04T20:34:12.436Z,8.08
2022-11-04T20:39:15.307Z,7.99
2022-11-04T20:44:16.812Z,7.94
2022-11-04T20:49:17.695Z,7.93
2022-11-04T20:54:20.035Z,7.88
2022-11-04T20:59:20.828Z,7.78
2022-11-04T21:04:22.739Z,7.72
2022-11-04T21:09:23.539Z,7.70
2022-11-04T21:14:29.667Z,7.63
2022-11-04T21:19:30.907Z,7.57
2022-11-04T21:24:38.972Z,7.50
2022-11-04T21:29:40.238Z,7.52
2022-11-04T21:34:43.587Z,7.50
2022-11-04T21:39:44.615Z,7.55
2022-11-04T21:44:45.369Z,7.75
2022-11-04T21:49:46.085Z,7.68
2022-11-04T21:54:46.974Z,7.55
2022-11-04T21:59:48.323Z,7.55
2022-11-04T22:04:49.192Z,7.51
2022-11-04T22:09:49.911Z,7.58
2022-11-04T22:14:50.710Z,7.63
2022-11-04T22:19:51.770Z,7.58
2022-11-04T22:25:06.746Z,7.60
2022-11-04T22:30:09.554Z,7.57
2022-11-04T22:35:10.295Z,7.55
2022-11-04T22:40:12.099Z,7.58
2022-11-04T22:45:16.690Z,7.43
2022-11-04T22:50:20.992Z,7.32
2022-11-04T22:55:25.072Z,7.33
2022-11-04T23:00:28.252Z,7.23
2022-11-04T23:05:31.802Z,7.20
2022-11-04T23:10:51.145Z,7.16
2022-11-04T23:16:10.472Z,7.14
2022-11-04T23:21:35.222Z,7.11
2022-11-04T23:26:36.228Z,7.07
2022-11-04T23:31:40.244Z,7.05
2022-11-04T23:37:23.200Z,7.11
2022-11-04T23:42:23.932Z,7.07
2022-11-04T23:47:43.192Z,7.14
2022-11-04T23:54:35.835Z,7.17
2022-11-04T23:59:54.866Z,7.08
